Arcadia, Ohio
Current Conditions -  °F | °C
As of 3:53 AM on Sunday 26 Oct 2014 (Local Time) from KFDY Reporting Station
Haze Haze  
Wind Chill: 38°   Ceiling: Unl
Heat Index: 42°   Visibility: 6mi
Dew Point: 33°   Wind: 7mph
Humidity: 70%   Direction: 270°W
Pressure: 29.9"   Gusts: NA
Location:  41.11°N, 83.52°W
Report Text: KFDY 260753Z AUTO 27006KT 6SM HZ CLR 06/01 A2990 RMK AO2 SLP120 T00560006
Loading
Personal Weather Stations






























Interactive Weather Map
Tropical Storm Tracking
New forecast layout! Learn more

10-Day Weather Forecast

Advertisements
Track Severe Weather on mobile